sensor_id;sensor_type;location;lat;lon;timestamp;pressure;altitude;pressure_sealevel;temperature;humidity
25759;BME280;13604;52.496;13.456;2023-07-30T00:02:16;100392.03;;;15.93;100.00
25759;BME280;13604;52.496;13.456;2023-07-30T00:04:42;100374.34;;;15.83;100.00
25759;BME280;13604;52.496;13.456;2023-07-30T00:07:07;100380.41;;;15.79;100.00
25759;BME280;13604;52.496;13.456;2023-07-30T00:09:32;100390.19;;;15.88;100.00
25759;BME280;13604;52.496;13.456;2023-07-30T00:11:58;100393.63;;;15.85;100.00
25759;BME280;13604;52.496;13.456;2023-07-30T00:14:23;100368.78;;;15.66;100.00
25759;BME280;13604;52.496;13.456;2023-07-30T00:16:48;100391.75;;;15.76;100.00
25759;BME280;13604;52.496;13.456;2023-07-30T00:19:14;100368.72;;;15.63;100.00
25759;BME280;13604;52.496;13.456;2023-07-30T00:21:39;100376.66;;;15.66;100.00
25759;BME280;13604;52.496;13.456;2023-07-30T00:24:04;100389.00;;;15.72;100.00
25759;BME280;13604;52.496;13.456;2023-07-30T00:26:30;100391.56;;;15.69;100.00
25759;BME280;13604;52.496;13.456;2023-07-30T00:28:55;100387.19;;;15.68;100.00
25759;BME280;13604;52.496;13.456;2023-07-30T00:31:20;100365.84;;;15.51;100.00
25759;BME280;13604;52.496;13.456;2023-07-30T00:33:46;100365.91;;;15.54;100.00
25759;BME280;13604;52.496;13.456;2023-07-30T00:36:11;100389.69;;;15.61;100.00
25759;BME280;13604;52.496;13.456;2023-07-30T00:38:36;100380.00;;;15.59;100.00
25759;BME280;13604;52.496;13.456;2023-07-30T00:41:01;100354.19;;;15.35;100.00
25759;BME280;13604;52.496;13.456;2023-07-30T00:43:27;100374.41;;;15.40;100.00
25759;BME280;13604;52.496;13.456;2023-07-30T00:45:52;100351.34;;;15.24;100.00
25759;BME280;13604;52.496;13.456;2023-07-30T00:48:18;100376.16;;;15.40;100.00
25759;BME280;13604;52.496;13.456;2023-07-30T00:50:43;100365.59;;;15.37;100.00
25759;BME280;13604;52.496;13.456;2023-07-30T00:53:11;100344.41;;;15.27;100.00
25759;BME280;13604;52.496;13.456;2023-07-30T00:55:38;100350.59;;;15.30;100.00
25759;BME280;13604;52.496;13.456;2023-07-30T00:58:04;100349.72;;;15.31;100.00
25759;BME280;13604;52.496;13.456;2023-07-30T01:00:30;100337.19;;;15.16;100.00
25759;BME280;13604;52.496;13.456;2023-07-30T01:02:55;100322.13;;;15.05;100.00
25759;BME280;13604;52.496;13.456;2023-07-30T01:05:21;100341.41;;;15.07;100.00
25759;BME280;13604;52.496;13.456;2023-07-30T01:07:46;100342.13;;;15.00;100.00
25759;BME280;13604;52.496;13.456;2023-07-30T01:10:12;100332.38;;;14.95;100.00
25759;BME280;13604;52.496;13.456;2023-07-30T01:12:37;100348.19;;;14.98;100.00
25759;BME280;13604;52.496;13.456;2023-07-30T01:15:04;100345.38;;;14.90;100.00
25759;BME280;13604;52.496;13.456;2023-07-30T01:17:29;100338.25;;;14.83;100.00
25759;BME280;13604;52.496;13.456;2023-07-30T01:19:55;100342.66;;;14.84;100.00
25759;BME280;13604;52.496;13.456;2023-07-30T01:22:21;100368.19;;;14.93;100.00
25759;BME280;13604;52.496;13.456;2023-07-30T01:24:47;100361.88;;;14.84;100.00
25759;BME280;13604;52.496;13.456;2023-07-30T01:27:36;100384.75;;;14.91;100.00
25759;BME280;13604;52.496;13.456;2023-07-30T01:30:08;100384.72;;;14.90;100.00
25759;BME280;13604;52.496;13.456;2023-07-30T01:32:37;100366.78;;;14.67;100.00
25759;BME280;13604;52.496;13.456;2023-07-30T01:35:04;100372.03;;;14.69;100.00
25759;BME280;13604;52.496;13.456;2023-07-30T01:37:31;100388.91;;;14.80;100.00
25759;BME280;13604;52.496;13.456;2023-07-30T01:39:56;100388.84;;;14.77;100.00
25759;BME280;13604;52.496;13.456;2023-07-30T01:42:28;100394.88;;;14.75;100.00
25759;BME280;13604;52.496;13.456;2023-07-30T01:44:53;100393.13;;;14.75;100.00
25759;BME280;13604;52.496;13.456;2023-07-30T01:47:18;100406.31;;;14.78;100.00
25759;BME280;13604;52.496;13.456;2023-07-30T01:49:44;100406.31;;;14.78;100.00
25759;BME280;13604;52.496;13.456;2023-07-30T01:52:09;100395.63;;;14.69;100.00
25759;BME280;13604;52.496;13.456;2023-07-30T01:54:34;100384.09;;;14.61;100.00
25759;BME280;13604;52.496;13.456;2023-07-30T01:57:00;100419.53;;;14.83;100.00
25759;BME280;13604;52.496;13.456;2023-07-30T01:59:25;100414.06;;;14.72;100.00
25759;BME280;13604;52.496;13.456;2023-07-30T02:01:51;100413.25;;;14.76;100.00
25759;BME280;13604;52.496;13.456;2023-07-30T02:04:16;100371.59;;;14.52;100.00
25759;BME280;13604;52.496;13.456;2023-07-30T02:06:43;100361.09;;;14.50;100.00
25759;BME280;13604;52.496;13.456;2023-07-30T02:09:08;100389.22;;;14.58;100.00
25759;BME280;13604;52.496;13.456;2023-07-30T02:11:33;100391.78;;;14.54;100.00
25759;BME280;13604;52.496;13.456;2023-07-30T02:13:58;100364.38;;;14.42;100.00
25759;BME280;13604;52.496;13.456;2023-07-30T02:16:24;100400.69;;;14.61;100.00
25759;BME280;13604;52.496;13.456;2023-07-30T02:18:49;100362.56;;;14.38;100.00
25759;BME280;13604;52.496;13.456;2023-07-30T02:21:14;100397.72;;;14.47;100.00
25759;BME280;13604;52.496;13.456;2023-07-30T02:23:40;100407.47;;;14.53;100.00
25759;BME280;13604;52.496;13.456;2023-07-30T02:26:05;100379.97;;;14.35;100.00
25759;BME280;13604;52.496;13.456;2023-07-30T02:28:30;100400.94;;;14.37;100.00
25759;BME280;13604;52.496;13.456;2023-07-30T02:30:56;100408.06;;;14.41;100.00
25759;BME280;13604;52.496;13.456;2023-07-30T02:33:21;100416.00;;;14.44;100.00
25759;BME280;13604;52.496;13.456;2023-07-30T02:35:46;100400.22;;;14.43;100.00
25759;BME280;13604;52.496;13.456;2023-07-30T02:38:11;100417.13;;;14.56;100.00
25759;BME280;13604;52.496;13.456;2023-07-30T02:40:37;100397.69;;;14.46;100.00
25759;BME280;13604;52.496;13.456;2023-07-30T02:43:02;100419.66;;;14.51;100.00
25759;BME280;13604;52.496;13.456;2023-07-30T02:45:28;100390.50;;;14.39;100.00
25759;BME280;13604;52.496;13.456;2023-07-30T02:47:53;100405.44;;;14.41;100.00
25759;BME280;13604;52.496;13.456;2023-07-30T02:50:18;100428.41;;;14.53;100.00
25759;BME280;13604;52.496;13.456;2023-07-30T02:52:44;100414.13;;;14.40;100.00
25759;BME280;13604;52.496;13.456;2023-07-30T02:55:09;100427.47;;;14.49;100.00
25759;BME280;13604;52.496;13.456;2023-07-30T02:57:34;100429.88;;;14.42;100.00
25759;BME280;13604;52.496;13.456;2023-07-30T02:59:59;100402.41;;;14.26;100.00
25759;BME280;13604;52.496;13.456;2023-07-30T03:02:25;100426.47;;;14.44;100.00
25759;BME280;13604;52.496;13.456;2023-07-30T03:04:50;100387.41;;;14.18;100.00
25759;BME280;13604;52.496;13.456;2023-07-30T03:07:15;100395.22;;;14.17;100.00
25759;BME280;13604;52.496;13.456;2023-07-30T03:09:41;100426.31;;;14.38;100.00
25759;BME280;13604;52.496;13.456;2023-07-30T03:12:06;100406.75;;;14.24;100.00
25759;BME280;13604;52.496;13.456;2023-07-30T03:14:32;100318.84;;;13.64;100.00
25759;BME280;13604;52.496;13.456;2023-07-30T03:16:57;100427.97;;;14.34;100.00
25759;BME280;13604;52.496;13.456;2023-07-30T03:19:22;100426.19;;;14.33;100.00
25759;BME280;13604;52.496;13.456;2023-07-30T03:21:48;100414.59;;;14.24;100.00
25759;BME280;13604;52.496;13.456;2023-07-30T03:24:13;100399.59;;;14.16;100.00
25759;BME280;13604;52.496;13.456;2023-07-30T03:26:38;100407.56;;;14.21;100.00
25759;BME280;13604;52.496;13.456;2023-07-30T03:29:04;100437.63;;;14.37;100.00
25759;BME280;13604;52.496;13.456;2023-07-30T03:31:29;100413.44;;;14.12;100.00
25759;BME280;13604;52.496;13.456;2023-07-30T03:33:54;100417.00;;;14.14;100.00
25759;BME280;13604;52.496;13.456;2023-07-30T03:36:19;100429.28;;;14.17;100.00
25759;BME280;13604;52.496;13.456;2023-07-30T03:38:45;100422.25;;;14.16;100.00
25759;BME280;13604;52.496;13.456;2023-07-30T03:41:10;100418.69;;;14.12;100.00
25759;BME280;13604;52.496;13.456;2023-07-30T03:43:36;100417.81;;;14.12;100.00
25759;BME280;13604;52.496;13.456;2023-07-30T03:46:01;100402.78;;;14.05;100.00
25759;BME280;13604;52.496;13.456;2023-07-30T03:48:27;100412.44;;;14.07;100.00
25759;BME280;13604;52.496;13.456;2023-07-30T03:50:53;100440.84;;;14.25;100.00
25759;BME280;13604;52.496;13.456;2023-07-30T03:53:18;100425.94;;;14.23;100.00
25759;BME280;13604;52.496;13.456;2023-07-30T03:55:44;100446.41;;;14.38;100.00
25759;BME280;13604;52.496;13.456;2023-07-30T03:58:09;100411.78;;;14.16;100.00
25759;BME280;13604;52.496;13.456;2023-07-30T04:00:34;100449.84;;;14.36;100.00
25759;BME280;13604;52.496;13.456;2023-07-30T04:02:59;100444.66;;;14.38;100.00
25759;BME280;13604;52.496;13.456;2023-07-30T04:05:25;100385.09;;;13.96;100.00
25759;BME280;13604;52.496;13.456;2023-07-30T04:07:50;100453.25;;;14.34;100.00
25759;BME280;13604;52.496;13.456;2023-07-30T04:10:15;100406.63;;;14.19;100.00
25759;BME280;13604;52.496;13.456;2023-07-30T04:12:41;100435.03;;;14.39;100.00
25759;BME280;13604;52.496;13.456;2023-07-30T04:15:06;100465.97;;;14.53;100.00
25759;BME280;13604;52.496;13.456;2023-07-30T04:17:32;100464.47;;;14.62;100.00
25759;BME280;13604;52.496;13.456;2023-07-30T04:19:57;100443.22;;;14.51;100.00
25759;BME280;13604;52.496;13.456;2023-07-30T04:22:22;100422.16;;;14.46;100.00
25759;BME280;13604;52.496;13.456;2023-07-30T04:24:47;100457.53;;;14.64;100.00
25759;BME280;13604;52.496;13.456;2023-07-30T04:27:13;100457.53;;;14.64;100.00
25759;BME280;13604;52.496;13.456;2023-07-30T04:29:38;100462.06;;;14.71;100.00
25759;BME280;13604;52.496;13.456;2023-07-30T04:32:04;100457.63;;;14.68;100.00
25759;BME280;13604;52.496;13.456;2023-07-30T04:34:29;100461.31;;;14.77;100.00
25759;BME280;13604;52.496;13.456;2023-07-30T04:36:54;100439.19;;;14.64;100.00
25759;BME280;13604;52.496;13.456;2023-07-30T04:39:20;100424.31;;;14.63;100.00
25759;BME280;13604;52.496;13.456;2023-07-30T04:41:45;100458.13;;;14.88;100.00
25759;BME280;13604;52.496;13.456;2023-07-30T04:44:10;100477.44;;;14.92;100.00
25759;BME280;13604;52.496;13.456;2023-07-30T04:46:35;100459.16;;;14.95;100.00
25759;BME280;13604;52.496;13.456;2023-07-30T04:49:02;100437.16;;;14.88;100.00
25759;BME280;13604;52.496;13.456;2023-07-30T04:51:29;100472.47;;;15.06;100.00
25759;BME280;13604;52.496;13.456;2023-07-30T04:53:54;100464.47;;;15.00;100.00
25759;BME280;13604;52.496;13.456;2023-07-30T04:56:20;100450.63;;;15.05;100.00
25759;BME280;13604;52.496;13.456;2023-07-30T04:58:45;100473.69;;;15.20;100.00
25759;BME280;13604;52.496;13.456;2023-07-30T05:01:10;100474.81;;;15.32;100.00
25759;BME280;13604;52.496;13.456;2023-07-30T05:03:35;100465.19;;;15.32;100.00
25759;BME280;13604;52.496;13.456;2023-07-30T05:06:01;100441.34;;;15.20;100.00
25759;BME280;13604;52.496;13.456;2023-07-30T05:08:26;100448.50;;;15.28;100.00
25759;BME280;13604;52.496;13.456;2023-07-30T05:10:51;100443.25;;;15.28;100.00
25759;BME280;13604;52.496;13.456;2023-07-30T05:13:17;100470.88;;;15.54;100.00
25759;BME280;13604;52.496;13.456;2023-07-30T05:15:42;100455.97;;;15.51;100.00
25759;BME280;13604;52.496;13.456;2023-07-30T05:18:08;100471.22;;;15.69;100.00
25759;BME280;13604;52.496;13.456;2023-07-30T05:20:33;100476.56;;;15.75;100.00
25759;BME280;13604;52.496;13.456;2023-07-30T05:22:58;100468.84;;;15.81;100.00
25759;BME280;13604;52.496;13.456;2023-07-30T05:25:24;100464.66;;;15.91;100.00
25759;BME280;13604;52.496;13.456;2023-07-30T05:27:49;100425.81;;;15.75;100.00
25759;BME280;13604;52.496;13.456;2023-07-30T05:30:14;100456.03;;;15.98;100.00
25759;BME280;13604;52.496;13.456;2023-07-30T05:32:39;100438.59;;;16.02;100.00
25759;BME280;13604;52.496;13.456;2023-07-30T05:35:05;100468.66;;;16.19;100.00
25759;BME280;13604;52.496;13.456;2023-07-30T05:37:30;100452.13;;;16.24;100.00
25759;BME280;13604;52.496;13.456;2023-07-30T05:39:56;100472.81;;;16.57;100.00
25759;BME280;13604;52.496;13.456;2023-07-30T05:42:21;100458.88;;;16.61;100.00
25759;BME280;13604;52.496;13.456;2023-07-30T05:44:47;100473.31;;;16.86;100.00
25759;BME280;13604;52.496;13.456;2023-07-30T05:47:12;100438.19;;;16.84;100.00
25759;BME280;13604;52.496;13.456;2023-07-30T05:49:37;100482.66;;;17.27;100.00
25759;BME280;13604;52.496;13.456;2023-07-30T05:52:03;100454.63;;;17.31;100.00
25759;BME280;13604;52.496;13.456;2023-07-30T05:54:28;100475.09;;;17.53;100.00
25759;BME280;13604;52.496;13.456;2023-07-30T05:56:53;100465.41;;;17.49;100.00
25759;BME280;13604;52.496;13.456;2023-07-30T05:59:19;100450.44;;;17.48;100.00
25759;BME280;13604;52.496;13.456;2023-07-30T06:01:45;100450.38;;;17.40;100.00
25759;BME280;13604;52.496;13.456;2023-07-30T06:04:10;100472.59;;;17.64;100.00
25759;BME280;13604;52.496;13.456;2023-07-30T06:06:35;100465.63;;;17.69;100.00
25759;BME280;13604;52.496;13.456;2023-07-30T06:09:01;100458.63;;;17.71;100.00
25759;BME280;13604;52.496;13.456;2023-07-30T06:11:26;100459.53;;;17.73;100.00
25759;BME280;13604;52.496;13.456;2023-07-30T06:13:52;100452.69;;;17.88;100.00
25759;BME280;13604;52.496;13.456;2023-07-30T06:16:18;100452.03;;;18.10;100.00
25759;BME280;13604;52.496;13.456;2023-07-30T06:18:45;100447.66;;;18.11;100.00
25759;BME280;13604;52.496;13.456;2023-07-30T06:21:10;100462.88;;;18.39;100.00
25759;BME280;13604;52.496;13.456;2023-07-30T06:23:35;100440.97;;;18.48;100.00
25759;BME280;13604;52.496;13.456;2023-07-30T06:26:00;100183.66;;;17.43;99.82
25759;BME280;13604;52.496;13.456;2023-07-30T06:28:26;100473.16;;;19.25;95.17
25759;BME280;13604;52.496;13.456;2023-07-30T06:30:51;100463.47;;;19.26;93.41
25759;BME280;13604;52.496;13.456;2023-07-30T06:33:16;100468.69;;;19.13;91.44
25759;BME280;13604;52.496;13.456;2023-07-30T06:35:42;100470.50;;;19.16;91.90
25759;BME280;13604;52.496;13.456;2023-07-30T06:38:08;100488.16;;;19.31;93.01
25759;BME280;13604;52.496;13.456;2023-07-30T06:40:34;100467.84;;;19.16;93.50
25759;BME280;13604;52.496;13.456;2023-07-30T06:43:00;100478.63;;;19.61;92.23
25759;BME280;13604;52.496;13.456;2023-07-30T06:45:25;100484.03;;;19.99;90.41
25759;BME280;13604;52.496;13.456;2023-07-30T06:47:50;100470.00;;;20.30;89.01
25759;BME280;13604;52.496;13.456;2023-07-30T06:50:16;100483.25;;;20.56;85.71
25759;BME280;13604;52.496;13.456;2023-07-30T06:52:41;100470.88;;;20.49;84.67
25759;BME280;13604;52.496;13.456;2023-07-30T06:55:06;100470.88;;;20.24;85.88
25759;BME280;13604;52.496;13.456;2023-07-30T06:57:32;100464.69;;;20.13;86.42
25759;BME280;13604;52.496;13.456;2023-07-30T06:59:57;100440.88;;;20.02;86.30
25759;BME280;13604;52.496;13.456;2023-07-30T07:02:26;100488.47;;;20.14;87.66
25759;BME280;13604;52.496;13.456;2023-07-30T07:04:51;100476.13;;;19.99;86.35
25759;BME280;13604;52.496;13.456;2023-07-30T07:07:16;100474.34;;;19.95;87.81
25759;BME280;13604;52.496;13.456;2023-07-30T07:09:41;100475.25;;;20.16;88.35
25759;BME280;13604;52.496;13.456;2023-07-30T07:12:07;100455.00;;;20.30;88.82
25759;BME280;13604;52.496;13.456;2023-07-30T07:14:32;100489.41;;;20.36;86.51
25759;BME280;13604;52.496;13.456;2023-07-30T07:16:58;100486.75;;;20.36;84.52
25759;BME280;13604;52.496;13.456;2023-07-30T07:19:23;100481.47;;;20.50;85.12
25759;BME280;13604;52.496;13.456;2023-07-30T07:21:48;100473.53;;;20.49;84.26
25759;BME280;13604;52.496;13.456;2023-07-30T07:24:14;100467.34;;;20.27;85.14
25759;BME280;13604;52.496;13.456;2023-07-30T07:26:39;100440.03;;;20.29;85.09
25759;BME280;13604;52.496;13.456;2023-07-30T07:29:04;100459.44;;;20.56;85.03
25759;BME280;13604;52.496;13.456;2023-07-30T07:31:30;100478.81;;;20.50;83.73
25759;BME280;13604;52.496;13.456;2023-07-30T07:33:55;100481.47;;;20.38;86.38
25759;BME280;13604;52.496;13.456;2023-07-30T07:36:20;100465.59;;;20.35;85.85
25759;BME280;13604;52.496;13.456;2023-07-30T07:38:46;100449.72;;;20.15;85.51
25759;BME280;13604;52.496;13.456;2023-07-30T07:41:15;100476.16;;;20.42;87.27
25759;BME280;13604;52.496;13.456;2023-07-30T07:43:41;100470.00;;;20.48;88.50
25759;BME280;13604;52.496;13.456;2023-07-30T07:46:07;100459.44;;;20.65;85.18
25759;BME280;13604;52.496;13.456;2023-07-30T07:48:38;100467.34;;;21.04;83.51
25759;BME280;13604;52.496;13.456;2023-07-30T07:51:03;100474.28;;;21.43;80.57
25759;BME280;13604;52.496;13.456;2023-07-30T07:53:28;100483.06;;;21.56;79.89
25759;BME280;13604;52.496;13.456;2023-07-30T07:55:54;100450.44;;;21.51;81.91
25759;BME280;13604;52.496;13.456;2023-07-30T07:58:19;100460.66;;;22.19;79.84
25759;BME280;13604;52.496;13.456;2023-07-30T08:00:44;100464.88;;;22.48;76.01
25759;BME280;13604;52.496;13.456;2023-07-30T08:03:10;100470.13;;;22.57;73.25
25759;BME280;13604;52.496;13.456;2023-07-30T08:05:35;100478.72;;;22.82;74.47
25759;BME280;13604;52.496;13.456;2023-07-30T08:08:01;100451.63;;;23.38;71.52
25759;BME280;13604;52.496;13.456;2023-07-30T08:10:26;100472.59;;;24.24;65.98
25759;BME280;13604;52.496;13.456;2023-07-30T08:12:51;100474.84;;;25.02;65.85
25759;BME280;13604;52.496;13.456;2023-07-30T08:15:17;100475.13;;;25.35;63.50
25759;BME280;13604;52.496;13.456;2023-07-30T08:17:42;100456.09;;;25.08;63.10
25759;BME280;13604;52.496;13.456;2023-07-30T08:20:08;100457.69;;;25.17;63.67
25759;BME280;13604;52.496;13.456;2023-07-30T08:22:33;100471.38;;;25.45;60.38
25759;BME280;13604;52.496;13.456;2023-07-30T08:24:58;100475.38;;;24.73;61.68
25759;BME280;13604;52.496;13.456;2023-07-30T08:27:24;100479.28;;;24.49;64.73
25759;BME280;13604;52.496;13.456;2023-07-30T08:29:49;100481.63;;;24.70;64.19
25759;BME280;13604;52.496;13.456;2023-07-30T08:32:14;100460.03;;;25.78;61.09
25759;BME280;13604;52.496;13.456;2023-07-30T08:34:39;100478.72;;;27.22;55.89
25759;BME280;13604;52.496;13.456;2023-07-30T08:37:05;100480.47;;;28.15;54.09
25759;BME280;13604;52.496;13.456;2023-07-30T08:39:30;100469.28;;;26.75;50.11
25759;BME280;13604;52.496;13.456;2023-07-30T08:41:55;100473.56;;;27.78;50.04
25759;BME280;13604;52.496;13.456;2023-07-30T08:44:21;100476.75;;;27.89;49.61
25759;BME280;13604;52.496;13.456;2023-07-30T08:46:46;100483.66;;;28.26;46.62
25759;BME280;13604;52.496;13.456;2023-07-30T08:49:11;100481.84;;;27.69;47.67
25759;BME280;13604;52.496;13.456;2023-07-30T08:51:37;100460.25;;;27.47;47.41
25759;BME280;13604;52.496;13.456;2023-07-30T08:54:04;100485.00;;;27.53;47.68
25759;BME280;13604;52.496;13.456;2023-07-30T08:56:30;100481.06;;;27.97;47.95
25759;BME280;13604;52.496;13.456;2023-07-30T08:58:57;100461.84;;;28.39;47.34
25759;BME280;13604;52.496;13.456;2023-07-30T09:01:29;100484.63;;;28.24;47.68
25759;BME280;13604;52.496;13.456;2023-07-30T09:03:57;100471.41;;;28.99;45.16
25759;BME280;13604;52.496;13.456;2023-07-30T09:06:25;100491.34;;;29.43;43.65
25759;BME280;13604;52.496;13.456;2023-07-30T09:08:50;100482.66;;;29.36;43.26
25759;BME280;13604;52.496;13.456;2023-07-30T09:11:15;100482.41;;;29.66;42.72
25759;BME280;13604;52.496;13.456;2023-07-30T09:13:41;100488.94;;;30.06;42.91
25759;BME280;13604;52.496;13.456;2023-07-30T09:16:10;100466.53;;;30.07;41.74
25759;BME280;13604;52.496;13.456;2023-07-30T09:18:45;100490.13;;;30.65;40.11
25759;BME280;13604;52.496;13.456;2023-07-30T09:21:14;100494.03;;;30.78;39.17
25759;BME280;13604;52.496;13.456;2023-07-30T09:23:43;100502.47;;;31.12;37.72
25759;BME280;13604;52.496;13.456;2023-07-30T09:26:10;100494.19;;;31.37;36.18
25759;BME280;13604;52.496;13.456;2023-07-30T09:28:35;100488.50;;;31.64;35.00
25759;BME280;13604;52.496;13.456;2023-07-30T09:31:02;100496.34;;;32.79;35.66
25759;BME280;13604;52.496;13.456;2023-07-30T09:33:27;100493.16;;;33.90;33.54
25759;BME280;13604;52.496;13.456;2023-07-30T09:35:53;100508.59;;;34.36;33.88
25759;BME280;13604;52.496;13.456;2023-07-30T09:38:19;100508.16;;;33.12;33.37
25759;BME280;13604;52.496;13.456;2023-07-30T09:48:04;100521.13;;;30.94;nan
25759;BME280;13604;52.496;13.456;2023-07-30T09:50:30;100515.28;;;30.62;nan
25759;BME280;13604;52.496;13.456;2023-07-30T09:52:58;100492.19;;;30.79;nan
25759;BME280;13604;52.496;13.456;2023-07-30T09:55:26;100516.16;;;30.19;nan
25759;BME280;13604;52.496;13.456;2023-07-30T09:57:51;100516.22;;;29.46;nan
25759;BME280;13604;52.496;13.456;2023-07-30T10:02:40;100498.97;;;31.49;33.86
25759;BME280;13604;52.496;13.456;2023-07-30T10:05:14;100502.47;;;32.10;33.71
25759;BME280;13604;52.496;13.456;2023-07-30T10:07:44;100501.09;;;33.78;31.46
25759;BME280;13604;52.496;13.456;2023-07-30T10:10:13;100496.66;;;34.24;29.56
25759;BME280;13604;52.496;13.456;2023-07-30T10:12:38;100511.97;;;33.59;30.75
25759;BME280;13604;52.496;13.456;2023-07-30T10:15:06;100511.22;;;31.96;30.87
25759;BME280;13604;52.496;13.456;2023-07-30T10:17:32;100499.63;;;32.50;32.50
25759;BME280;13604;52.496;13.456;2023-07-30T10:20:19;100506.56;;;31.21;33.66
25759;BME280;13604;52.496;13.456;2023-07-30T10:22:45;100503.94;;;30.34;34.15
25759;BME280;13604;52.496;13.456;2023-07-30T10:25:12;100512.22;;;29.82;35.52
25759;BME280;13604;52.496;13.456;2023-07-30T10:27:39;100515.38;;;31.04;33.52
25759;BME280;13604;52.496;13.456;2023-07-30T10:30:15;100497.09;;;33.51;31.66
25759;BME280;13604;52.496;13.456;2023-07-30T10:35:44;100510.97;;;33.28;29.73
25759;BME280;13604;52.496;13.456;2023-07-30T10:38:29;100515.22;;;33.99;28.33
25759;BME280;13604;52.496;13.456;2023-07-30T10:43:31;100517.13;;;33.97;27.98
25759;BME280;13604;52.496;13.456;2023-07-30T10:45:58;100507.06;;;31.70;30.32
25759;BME280;13604;52.496;13.456;2023-07-30T10:48:34;100569.44;;;31.59;31.73
25759;BME280;13604;52.496;13.456;2023-07-30T10:51:01;100514.53;;;31.63;31.60
25759;BME280;13604;52.496;13.456;2023-07-30T10:53:27;100520.88;;;32.00;31.35
25759;BME280;13604;52.496;13.456;2023-07-30T10:55:53;100514.06;;;32.85;30.87
25759;BME280;13604;52.496;13.456;2023-07-30T10:58:20;100508.50;;;32.88;29.25
25759;BME280;13604;52.496;13.456;2023-07-30T11:00:45;100533.31;;;33.12;28.39
25759;BME280;13604;52.496;13.456;2023-07-30T11:03:11;100519.53;;;33.18;28.72
25759;BME280;13604;52.496;13.456;2023-07-30T11:05:39;100521.53;;;32.80;29.15
25759;BME280;13604;52.496;13.456;2023-07-30T11:08:05;100486.88;;;32.36;30.34
25759;BME280;13604;52.496;13.456;2023-07-30T11:10:30;100501.16;;;30.79;31.92
25759;BME280;13604;52.496;13.456;2023-07-30T11:12:57;100510.06;;;30.37;33.96
25759;BME280;13604;52.496;13.456;2023-07-30T11:15:22;100465.09;;;32.40;30.71
25759;BME280;13604;52.496;13.456;2023-07-30T11:17:48;100509.59;;;33.70;29.28
25759;BME280;13604;52.496;13.456;2023-07-30T11:20:24;100488.38;;;34.11;27.31
25759;BME280;13604;52.496;13.456;2023-07-30T11:22:52;100505.59;;;34.57;27.89
25759;BME280;13604;52.496;13.456;2023-07-30T11:30:12;100506.66;;;37.36;nan
25759;BME280;13604;52.496;13.456;2023-07-30T11:32:37;100488.97;;;36.77;nan
25759;BME280;13604;52.496;13.456;2023-07-30T11:35:02;100473.75;;;36.62;nan
25759;BME280;13604;52.496;13.456;2023-07-30T11:37:28;100496.66;;;37.36;nan
25759;BME280;13604;52.496;13.456;2023-07-30T11:39:53;100470.03;;;37.42;nan
25759;BME280;13604;52.496;13.456;2023-07-30T11:42:19;100499.47;;;37.22;nan
25759;BME280;13604;52.496;13.456;2023-07-30T11:44:44;100465.16;;;35.00;nan
25759;BME280;13604;52.496;13.456;2023-07-30T11:47:09;100480.13;;;34.61;nan
25759;BME280;13604;52.496;13.456;2023-07-30T11:49:35;100467.78;;;35.16;nan
25759;BME280;13604;52.496;13.456;2023-07-30T11:52:07;100492.75;;;36.20;nan
25759;BME280;13604;52.496;13.456;2023-07-30T11:54:33;100479.56;;;37.09;nan
25759;BME280;13604;52.496;13.456;2023-07-30T11:56:58;100478.69;;;36.95;nan
25759;BME280;13604;52.496;13.456;2023-07-30T11:59:24;100497.53;;;36.71;nan
25759;BME280;13604;52.496;13.456;2023-07-30T12:02:34;100474.34;;;37.70;24.03
25759;BME280;13604;52.496;13.456;2023-07-30T12:12:15;100478.06;;;36.64;nan
25759;BME280;13604;52.496;13.456;2023-07-30T12:14:53;100459.41;;;36.47;nan
25759;BME280;13604;52.496;13.456;2023-07-30T12:17:18;100469.50;;;37.24;nan
25759;BME280;13604;52.496;13.456;2023-07-30T12:19:44;100493.50;;;36.64;nan
25759;BME280;13604;52.496;13.456;2023-07-30T12:22:09;100490.44;;;36.28;nan
25759;BME280;13604;52.496;13.456;2023-07-30T12:24:34;100483.50;;;36.10;nan
25759;BME280;13604;52.496;13.456;2023-07-30T12:27:00;100506.19;;;36.09;nan
25759;BME280;13604;52.496;13.456;2023-07-30T12:29:25;100465.13;;;36.42;nan
25759;BME280;13604;52.496;13.456;2023-07-30T12:31:51;100480.00;;;37.15;nan
25759;BME280;13604;52.496;13.456;2023-07-30T12:34:18;100474.38;;;37.31;nan
25759;BME280;13604;52.496;13.456;2023-07-30T12:36:44;100479.41;;;35.90;nan
25759;BME280;13604;52.496;13.456;2023-07-30T12:39:09;100469.56;;;33.45;nan
25759;BME280;13604;52.496;13.456;2023-07-30T12:41:34;100465.25;;;33.90;nan
25759;BME280;13604;52.496;13.456;2023-07-30T12:44:00;100490.81;;;34.32;nan
25759;BME280;13604;52.496;13.456;2023-07-30T12:46:25;100484.81;;;34.57;nan
25759;BME280;13604;52.496;13.456;2023-07-30T12:48:55;100465.78;;;34.44;nan
25759;BME280;13604;52.496;13.456;2023-07-30T12:51:20;100466.75;;;33.13;nan
25759;BME280;13604;52.496;13.456;2023-07-30T12:53:45;100453.75;;;33.21;nan
25759;BME280;13604;52.496;13.456;2023-07-30T12:56:10;100476.38;;;33.18;nan
25759;BME280;13604;52.496;13.456;2023-07-30T12:58:37;100474.41;;;33.05;nan
25759;BME280;13604;52.496;13.456;2023-07-30T13:02:33;100474.66;;;31.52;29.02